sensor_id;sensor_type;location;lat;lon;timestamp;P1;durP1;ratioP1;P2;durP2;ratioP2
45011;SDS011;63444;48.148;11.542;2022-11-20T00:01:09;3.03;;;2.50;;
45011;SDS011;63444;48.148;11.542;2022-11-20T00:03:36;3.67;;;2.50;;
45011;SDS011;63444;48.148;11.542;2022-11-20T00:06:06;3.03;;;2.50;;
45011;SDS011;63444;48.148;11.542;2022-11-20T00:08:34;2.87;;;2.57;;
45011;SDS011;63444;48.148;11.542;2022-11-20T00:11:19;2.90;;;2.40;;
45011;SDS011;63444;48.148;11.542;2022-11-20T00:13:48;2.70;;;2.50;;
45011;SDS011;63444;48.148;11.542;2022-11-20T00:16:15;3.73;;;2.87;;
45011;SDS011;63444;48.148;11.542;2022-11-20T00:18:43;2.80;;;2.20;;
45011;SDS011;63444;48.148;11.542;2022-11-20T00:21:12;2.63;;;2.43;;
45011;SDS011;63444;48.148;11.542;2022-11-20T00:23:40;2.73;;;2.30;;
45011;SDS011;63444;48.148;11.542;2022-11-20T00:26:07;2.93;;;2.40;;
45011;SDS011;63444;48.148;11.542;2022-11-20T00:28:35;2.63;;;2.43;;
45011;SDS011;63444;48.148;11.542;2022-11-20T00:31:06;3.37;;;2.43;;
45011;SDS011;63444;48.148;11.542;2022-11-20T00:33:33;2.57;;;2.37;;
45011;SDS011;63444;48.148;11.542;2022-11-20T00:36:33;2.40;;;2.20;;
45011;SDS011;63444;48.148;11.542;2022-11-20T00:38:54;3.63;;;2.40;;
45011;SDS011;63444;48.148;11.542;2022-11-20T00:41:22;2.67;;;2.30;;
45011;SDS011;63444;48.148;11.542;2022-11-20T00:43:48;2.50;;;2.30;;
45011;SDS011;63444;48.148;11.542;2022-11-20T00:46:18;3.77;;;2.70;;
45011;SDS011;63444;48.148;11.542;2022-11-20T00:48:45;2.63;;;2.37;;
45011;SDS011;63444;48.148;11.542;2022-11-20T00:51:12;3.70;;;2.80;;
45011;SDS011;63444;48.148;11.542;2022-11-20T00:53:39;3.70;;;2.87;;
45011;SDS011;63444;48.148;11.542;2022-11-20T00:56:09;2.93;;;2.63;;
45011;SDS011;63444;48.148;11.542;2022-11-20T00:58:38;2.60;;;2.40;;
45011;SDS011;63444;48.148;11.542;2022-11-20T01:01:07;3.13;;;2.60;;
45011;SDS011;63444;48.148;11.542;2022-11-20T01:03:41;2.60;;;2.40;;
45011;SDS011;63444;48.148;11.542;2022-11-20T01:06:15;2.60;;;2.40;;
45011;SDS011;63444;48.148;11.542;2022-11-20T01:08:43;3.57;;;2.50;;
45011;SDS011;63444;48.148;11.542;2022-11-20T01:11:11;4.53;;;2.77;;
45011;SDS011;63444;48.148;11.542;2022-11-20T01:13:48;5.37;;;2.93;;
45011;SDS011;63444;48.148;11.542;2022-11-20T01:16:16;2.30;;;2.10;;
45011;SDS011;63444;48.148;11.542;2022-11-20T01:18:45;3.17;;;2.87;;
45011;SDS011;63444;48.148;11.542;2022-11-20T01:21:13;2.53;;;2.33;;
45011;SDS011;63444;48.148;11.542;2022-11-20T01:23:45;3.67;;;2.67;;
45011;SDS011;63444;48.148;11.542;2022-11-20T01:26:13;3.17;;;2.30;;
45011;SDS011;63444;48.148;11.542;2022-11-20T01:28:42;4.47;;;2.57;;
45011;SDS011;63444;48.148;11.542;2022-11-20T01:33:39;3.43;;;2.60;;
45011;SDS011;63444;48.148;11.542;2022-11-20T01:36:06;3.03;;;2.50;;
45011;SDS011;63444;48.148;11.542;2022-11-20T01:38:32;3.27;;;2.30;;
45011;SDS011;63444;48.148;11.542;2022-11-20T01:40:58;2.60;;;2.40;;
45011;SDS011;63444;48.148;11.542;2022-11-20T01:43:24;2.40;;;2.20;;
45011;SDS011;63444;48.148;11.542;2022-11-20T01:46:01;4.03;;;2.70;;
45011;SDS011;63444;48.148;11.542;2022-11-20T01:48:32;2.60;;;2.40;;
45011;SDS011;63444;48.148;11.542;2022-11-20T01:51:06;3.17;;;2.30;;
45011;SDS011;63444;48.148;11.542;2022-11-20T01:53:41;3.77;;;2.60;;
45011;SDS011;63444;48.148;11.542;2022-11-20T01:56:08;2.60;;;2.20;;
45011;SDS011;63444;48.148;11.542;2022-11-20T01:58:37;3.67;;;2.40;;
45011;SDS011;63444;48.148;11.542;2022-11-20T02:01:07;2.77;;;2.50;;
45011;SDS011;63444;48.148;11.542;2022-11-20T02:03:33;2.57;;;2.30;;
45011;SDS011;63444;48.148;11.542;2022-11-20T02:08:32;2.97;;;2.40;;
45011;SDS011;63444;48.148;11.542;2022-11-20T02:10:58;3.63;;;2.43;;
45011;SDS011;63444;48.148;11.542;2022-11-20T02:13:24;2.73;;;2.50;;
45011;SDS011;63444;48.148;11.542;2022-11-20T02:16:09;2.97;;;2.60;;
45011;SDS011;63444;48.148;11.542;2022-11-20T02:18:38;3.00;;;2.70;;
45011;SDS011;63444;48.148;11.542;2022-11-20T02:21:54;5.00;;;2.60;;
45011;SDS011;63444;48.148;11.542;2022-11-20T02:24:09;2.60;;;2.40;;
45011;SDS011;63444;48.148;11.542;2022-11-20T02:26:46;4.63;;;2.60;;
45011;SDS011;63444;48.148;11.542;2022-11-20T02:29:25;2.50;;;2.30;;
45011;SDS011;63444;48.148;11.542;2022-11-20T02:31:56;2.83;;;2.57;;
45011;SDS011;63444;48.148;11.542;2022-11-20T02:34:25;3.17;;;2.60;;
45011;SDS011;63444;48.148;11.542;2022-11-20T02:36:51;2.90;;;2.50;;
45011;SDS011;63444;48.148;11.542;2022-11-20T02:39:19;6.70;;;2.67;;
45011;SDS011;63444;48.148;11.542;2022-11-20T02:41:46;3.57;;;2.80;;
45011;SDS011;63444;48.148;11.542;2022-11-20T02:44:12;4.53;;;2.57;;
45011;SDS011;63444;48.148;11.542;2022-11-20T02:46:37;2.63;;;2.43;;
45011;SDS011;63444;48.148;11.542;2022-11-20T02:49:04;2.87;;;2.67;;
45011;SDS011;63444;48.148;11.542;2022-11-20T02:51:30;3.27;;;2.97;;
45011;SDS011;63444;48.148;11.542;2022-11-20T02:53:56;2.80;;;2.60;;
45011;SDS011;63444;48.148;11.542;2022-11-20T02:56:22;3.00;;;2.70;;
45011;SDS011;63444;48.148;11.542;2022-11-20T02:58:49;2.93;;;2.67;;
45011;SDS011;63444;48.148;11.542;2022-11-20T03:01:15;2.80;;;2.50;;
45011;SDS011;63444;48.148;11.542;2022-11-20T03:03:40;3.10;;;2.80;;
45011;SDS011;63444;48.148;11.542;2022-11-20T03:06:06;3.00;;;2.70;;
45011;SDS011;63444;48.148;11.542;2022-11-20T03:08:32;2.83;;;2.50;;
45011;SDS011;63444;48.148;11.542;2022-11-20T03:11:02;4.03;;;2.60;;
45011;SDS011;63444;48.148;11.542;2022-11-20T03:13:32;3.10;;;2.60;;
45011;SDS011;63444;48.148;11.542;2022-11-20T03:16:04;2.70;;;2.50;;
45011;SDS011;63444;48.148;11.542;2022-11-20T03:18:31;3.67;;;2.60;;
45011;SDS011;63444;48.148;11.542;2022-11-20T03:20:57;2.80;;;2.60;;
45011;SDS011;63444;48.148;11.542;2022-11-20T03:23:24;2.63;;;2.43;;
45011;SDS011;63444;48.148;11.542;2022-11-20T03:25:52;2.93;;;2.50;;
45011;SDS011;63444;48.148;11.542;2022-11-20T03:28:18;2.33;;;2.13;;
45011;SDS011;63444;48.148;11.542;2022-11-20T03:30:43;3.70;;;2.50;;
45011;SDS011;63444;48.148;11.542;2022-11-20T03:33:09;3.33;;;2.40;;
45011;SDS011;63444;48.148;11.542;2022-11-20T03:35:34;2.63;;;2.43;;
45011;SDS011;63444;48.148;11.542;2022-11-20T03:38:00;2.50;;;2.30;;
45011;SDS011;63444;48.148;11.542;2022-11-20T03:40:25;2.60;;;2.40;;
45011;SDS011;63444;48.148;11.542;2022-11-20T03:42:51;5.07;;;2.53;;
45011;SDS011;63444;48.148;11.542;2022-11-20T03:45:17;3.60;;;2.60;;
45011;SDS011;63444;48.148;11.542;2022-11-20T03:47:43;3.07;;;2.60;;
45011;SDS011;63444;48.148;11.542;2022-11-20T03:50:10;3.37;;;2.70;;
45011;SDS011;63444;48.148;11.542;2022-11-20T03:52:37;3.23;;;2.60;;
45011;SDS011;63444;48.148;11.542;2022-11-20T03:55:03;2.90;;;2.50;;
45011;SDS011;63444;48.148;11.542;2022-11-20T03:57:29;3.27;;;2.97;;
45011;SDS011;63444;48.148;11.542;2022-11-20T03:59:55;2.83;;;2.40;;
45011;SDS011;63444;48.148;11.542;2022-11-20T04:02:20;3.07;;;2.70;;
45011;SDS011;63444;48.148;11.542;2022-11-20T04:04:46;3.00;;;2.70;;
45011;SDS011;63444;48.148;11.542;2022-11-20T04:07:12;2.77;;;2.40;;
45011;SDS011;63444;48.148;11.542;2022-11-20T04:09:37;3.60;;;2.47;;
45011;SDS011;63444;48.148;11.542;2022-11-20T04:12:04;2.30;;;2.10;;
45011;SDS011;63444;48.148;11.542;2022-11-20T04:14:30;3.03;;;2.13;;
45011;SDS011;63444;48.148;11.542;2022-11-20T04:16:55;2.57;;;2.37;;
45011;SDS011;63444;48.148;11.542;2022-11-20T04:19:21;3.30;;;2.60;;
45011;SDS011;63444;48.148;11.542;2022-11-20T04:21:47;3.40;;;2.70;;
45011;SDS011;63444;48.148;11.542;2022-11-20T04:24:13;4.10;;;2.50;;
45011;SDS011;63444;48.148;11.542;2022-11-20T04:26:39;3.00;;;2.57;;
45011;SDS011;63444;48.148;11.542;2022-11-20T04:29:04;3.33;;;2.67;;
45011;SDS011;63444;48.148;11.542;2022-11-20T04:31:31;2.80;;;2.60;;
45011;SDS011;63444;48.148;11.542;2022-11-20T04:33:59;2.77;;;2.57;;
45011;SDS011;63444;48.148;11.542;2022-11-20T04:36:26;2.93;;;2.73;;
45011;SDS011;63444;48.148;11.542;2022-11-20T04:38:57;2.37;;;2.17;;
45011;SDS011;63444;48.148;11.542;2022-11-20T04:41:26;3.27;;;2.97;;
45011;SDS011;63444;48.148;11.542;2022-11-20T04:43:57;3.57;;;2.53;;
45011;SDS011;63444;48.148;11.542;2022-11-20T04:46:26;3.40;;;2.67;;
45011;SDS011;63444;48.148;11.542;2022-11-20T04:48:54;2.60;;;2.40;;
45011;SDS011;63444;48.148;11.542;2022-11-20T04:51:20;3.07;;;2.77;;
45011;SDS011;63444;48.148;11.542;2022-11-20T04:53:46;2.80;;;2.40;;
45011;SDS011;63444;48.148;11.542;2022-11-20T04:56:11;3.00;;;2.73;;
45011;SDS011;63444;48.148;11.542;2022-11-20T04:58:38;3.03;;;2.70;;
45011;SDS011;63444;48.148;11.542;2022-11-20T05:01:05;3.53;;;2.93;;
45011;SDS011;63444;48.148;11.542;2022-11-20T05:03:32;2.90;;;2.67;;
45011;SDS011;63444;48.148;11.542;2022-11-20T05:06:05;2.97;;;2.70;;
45011;SDS011;63444;48.148;11.542;2022-11-20T05:08:31;3.47;;;2.97;;
45011;SDS011;63444;48.148;11.542;2022-11-20T05:11:01;3.30;;;2.93;;
45011;SDS011;63444;48.148;11.542;2022-11-20T05:13:28;3.43;;;3.00;;
45011;SDS011;63444;48.148;11.542;2022-11-20T05:15:55;3.03;;;2.60;;
45011;SDS011;63444;48.148;11.542;2022-11-20T05:18:27;3.10;;;2.80;;
45011;SDS011;63444;48.148;11.542;2022-11-20T05:20:56;3.03;;;2.80;;
45011;SDS011;63444;48.148;11.542;2022-11-20T05:23:22;3.80;;;3.10;;
45011;SDS011;63444;48.148;11.542;2022-11-20T05:25:53;4.30;;;2.80;;
45011;SDS011;63444;48.148;11.542;2022-11-20T05:28:20;3.47;;;2.70;;
45011;SDS011;63444;48.148;11.542;2022-11-20T05:30:46;2.87;;;2.53;;
45011;SDS011;63444;48.148;11.542;2022-11-20T05:33:12;2.97;;;2.77;;
45011;SDS011;63444;48.148;11.542;2022-11-20T05:35:40;3.50;;;3.13;;
45011;SDS011;63444;48.148;11.542;2022-11-20T05:38:08;5.13;;;2.93;;
45011;SDS011;63444;48.148;11.542;2022-11-20T05:40:33;3.87;;;2.80;;
45011;SDS011;63444;48.148;11.542;2022-11-20T05:42:59;3.17;;;2.87;;
45011;SDS011;63444;48.148;11.542;2022-11-20T05:45:25;5.00;;;3.03;;
45011;SDS011;63444;48.148;11.542;2022-11-20T05:47:51;3.33;;;2.80;;
45011;SDS011;63444;48.148;11.542;2022-11-20T05:50:17;3.40;;;3.10;;
45011;SDS011;63444;48.148;11.542;2022-11-20T05:52:43;3.60;;;3.30;;
45011;SDS011;63444;48.148;11.542;2022-11-20T05:55:11;3.23;;;2.93;;
45011;SDS011;63444;48.148;11.542;2022-11-20T05:57:37;4.40;;;3.10;;
45011;SDS011;63444;48.148;11.542;2022-11-20T06:00:03;3.00;;;2.80;;
45011;SDS011;63444;48.148;11.542;2022-11-20T06:02:33;3.10;;;2.80;;
45011;SDS011;63444;48.148;11.542;2022-11-20T06:05:00;3.63;;;2.90;;
45011;SDS011;63444;48.148;11.542;2022-11-20T06:07:26;3.73;;;2.80;;
45011;SDS011;63444;48.148;11.542;2022-11-20T06:09:52;3.03;;;2.70;;
45011;SDS011;63444;48.148;11.542;2022-11-20T06:12:17;3.00;;;2.70;;
45011;SDS011;63444;48.148;11.542;2022-11-20T06:14:43;3.00;;;2.70;;
45011;SDS011;63444;48.148;11.542;2022-11-20T06:17:08;3.07;;;2.83;;
45011;SDS011;63444;48.148;11.542;2022-11-20T06:19:34;2.63;;;2.43;;
45011;SDS011;63444;48.148;11.542;2022-11-20T06:21:59;3.53;;;3.00;;
45011;SDS011;63444;48.148;11.542;2022-11-20T06:24:25;2.80;;;2.60;;
45011;SDS011;63444;48.148;11.542;2022-11-20T06:26:54;3.17;;;2.87;;
45011;SDS011;63444;48.148;11.542;2022-11-20T06:29:20;2.87;;;2.40;;
45011;SDS011;63444;48.148;11.542;2022-11-20T06:31:45;2.50;;;2.30;;
45011;SDS011;63444;48.148;11.542;2022-11-20T06:34:11;2.60;;;2.33;;
45011;SDS011;63444;48.148;11.542;2022-11-20T06:36:38;2.40;;;2.20;;
45011;SDS011;63444;48.148;11.542;2022-11-20T06:39:03;2.93;;;2.40;;
45011;SDS011;63444;48.148;11.542;2022-11-20T06:41:29;2.50;;;2.30;;
45011;SDS011;63444;48.148;11.542;2022-11-20T06:43:54;2.83;;;2.53;;
45011;SDS011;63444;48.148;11.542;2022-11-20T06:46:21;2.80;;;2.60;;
45011;SDS011;63444;48.148;11.542;2022-11-20T06:48:47;3.33;;;2.67;;
45011;SDS011;63444;48.148;11.542;2022-11-20T06:51:14;2.43;;;2.00;;
45011;SDS011;63444;48.148;11.542;2022-11-20T06:53:39;3.20;;;2.50;;
45011;SDS011;63444;48.148;11.542;2022-11-20T06:56:05;2.03;;;1.93;;
45011;SDS011;63444;48.148;11.542;2022-11-20T06:58:32;2.37;;;2.20;;
45011;SDS011;63444;48.148;11.542;2022-11-20T07:00:59;2.47;;;2.27;;
45011;SDS011;63444;48.148;11.542;2022-11-20T07:03:29;2.47;;;2.27;;
45011;SDS011;63444;48.148;11.542;2022-11-20T07:05:55;2.70;;;2.20;;
45011;SDS011;63444;48.148;11.542;2022-11-20T07:08:21;2.40;;;2.13;;
45011;SDS011;63444;48.148;11.542;2022-11-20T07:10:47;2.23;;;2.03;;
45011;SDS011;63444;48.148;11.542;2022-11-20T07:13:13;2.43;;;2.10;;
45011;SDS011;63444;48.148;11.542;2022-11-20T07:15:39;2.67;;;2.20;;
45011;SDS011;63444;48.148;11.542;2022-11-20T07:18:04;2.33;;;2.03;;
45011;SDS011;63444;48.148;11.542;2022-11-20T07:20:30;2.40;;;1.90;;
45011;SDS011;63444;48.148;11.542;2022-11-20T07:22:56;2.07;;;1.87;;
45011;SDS011;63444;48.148;11.542;2022-11-20T07:25:23;2.50;;;1.83;;
45011;SDS011;63444;48.148;11.542;2022-11-20T07:27:49;2.83;;;2.10;;
45011;SDS011;63444;48.148;11.542;2022-11-20T07:30:16;2.00;;;1.80;;
45011;SDS011;63444;48.148;11.542;2022-11-20T07:32:42;2.00;;;1.90;;
45011;SDS011;63444;48.148;11.542;2022-11-20T07:35:12;2.27;;;2.07;;
45011;SDS011;63444;48.148;11.542;2022-11-20T07:37:41;2.63;;;2.30;;
45011;SDS011;63444;48.148;11.542;2022-11-20T07:40:07;2.33;;;1.90;;
45011;SDS011;63444;48.148;11.542;2022-11-20T07:42:32;1.90;;;1.80;;
45011;SDS011;63444;48.148;11.542;2022-11-20T07:44:58;2.50;;;2.23;;
45011;SDS011;63444;48.148;11.542;2022-11-20T07:47:24;2.73;;;2.40;;
45011;SDS011;63444;48.148;11.542;2022-11-20T07:49:49;2.40;;;2.20;;
45011;SDS011;63444;48.148;11.542;2022-11-20T07:52:15;3.63;;;2.23;;
45011;SDS011;63444;48.148;11.542;2022-11-20T07:54:41;2.73;;;2.40;;
45011;SDS011;63444;48.148;11.542;2022-11-20T07:57:06;2.30;;;2.10;;
45011;SDS011;63444;48.148;11.542;2022-11-20T07:59:32;3.53;;;2.70;;
45011;SDS011;63444;48.148;11.542;2022-11-20T08:01:57;2.97;;;2.50;;
45011;SDS011;63444;48.148;11.542;2022-11-20T08:04:23;4.03;;;2.20;;
45011;SDS011;63444;48.148;11.542;2022-11-20T08:06:51;2.63;;;2.23;;
45011;SDS011;63444;48.148;11.542;2022-11-20T08:09:18;2.97;;;2.60;;
45011;SDS011;63444;48.148;11.542;2022-11-20T08:11:44;2.70;;;2.40;;
45011;SDS011;63444;48.148;11.542;2022-11-20T08:14:28;3.73;;;2.73;;
45011;SDS011;63444;48.148;11.542;2022-11-20T08:16:53;2.87;;;2.57;;
45011;SDS011;63444;48.148;11.542;2022-11-20T08:19:19;2.63;;;2.30;;
45011;SDS011;63444;48.148;11.542;2022-11-20T08:21:45;3.37;;;2.40;;
45011;SDS011;63444;48.148;11.542;2022-11-20T08:24:11;2.30;;;2.03;;
45011;SDS011;63444;48.148;11.542;2022-11-20T08:26:37;2.40;;;2.20;;
45011;SDS011;63444;48.148;11.542;2022-11-20T08:29:03;2.63;;;2.43;;
45011;SDS011;63444;48.148;11.542;2022-11-20T08:31:30;2.50;;;2.30;;
45011;SDS011;63444;48.148;11.542;2022-11-20T08:33:56;3.00;;;2.70;;
45011;SDS011;63444;48.148;11.542;2022-11-20T08:36:22;2.17;;;2.00;;
45011;SDS011;63444;48.148;11.542;2022-11-20T08:38:49;2.50;;;2.00;;
45011;SDS011;63444;48.148;11.542;2022-11-20T08:41:19;3.20;;;2.90;;
45011;SDS011;63444;48.148;11.542;2022-11-20T08:44:04;2.63;;;2.00;;
45011;SDS011;63444;48.148;11.542;2022-11-20T08:46:33;3.33;;;2.43;;
45011;SDS011;63444;48.148;11.542;2022-11-20T08:49:07;2.60;;;2.20;;
45011;SDS011;63444;48.148;11.542;2022-11-20T08:51:34;2.40;;;2.17;;
45011;SDS011;63444;48.148;11.542;2022-11-20T08:54:01;2.70;;;2.10;;
45011;SDS011;63444;48.148;11.542;2022-11-20T08:56:27;2.53;;;2.23;;
45011;SDS011;63444;48.148;11.542;2022-11-20T08:58:54;2.93;;;2.10;;
45011;SDS011;63444;48.148;11.542;2022-11-20T09:01:20;2.23;;;2.13;;
45011;SDS011;63444;48.148;11.542;2022-11-20T09:03:46;2.90;;;2.17;;
45011;SDS011;63444;48.148;11.542;2022-11-20T09:06:12;2.63;;;2.10;;
45011;SDS011;63444;48.148;11.542;2022-11-20T09:08:38;1.87;;;1.77;;
45011;SDS011;63444;48.148;11.542;2022-11-20T09:11:04;2.40;;;2.20;;
45011;SDS011;63444;48.148;11.542;2022-11-20T09:13:31;3.53;;;2.23;;
45011;SDS011;63444;48.148;11.542;2022-11-20T09:16:00;3.20;;;2.20;;
45011;SDS011;63444;48.148;11.542;2022-11-20T09:18:31;1.90;;;1.80;;
45011;SDS011;63444;48.148;11.542;2022-11-20T09:21:00;2.30;;;2.10;;
45011;SDS011;63444;48.148;11.542;2022-11-20T09:23:30;2.23;;;1.90;;
45011;SDS011;63444;48.148;11.542;2022-11-20T09:26:01;1.80;;;1.70;;
45011;SDS011;63444;48.148;11.542;2022-11-20T09:28:28;1.73;;;1.63;;
45011;SDS011;63444;48.148;11.542;2022-11-20T09:30:54;3.83;;;2.13;;
45011;SDS011;63444;48.148;11.542;2022-11-20T09:33:20;2.50;;;2.23;;
45011;SDS011;63444;48.148;11.542;2022-11-20T09:35:45;3.60;;;2.13;;
45011;SDS011;63444;48.148;11.542;2022-11-20T09:38:11;1.80;;;1.70;;
45011;SDS011;63444;48.148;11.542;2022-11-20T09:40:43;2.03;;;1.83;;
45011;SDS011;63444;48.148;11.542;2022-11-20T09:46:28;2.00;;;1.80;;
45011;SDS011;63444;48.148;11.542;2022-11-20T09:54:18;1.83;;;1.67;;
45011;SDS011;63444;48.148;11.542;2022-11-20T09:56:46;1.93;;;1.70;;
45011;SDS011;63444;48.148;11.542;2022-11-20T09:59:40;2.00;;;1.90;;
45011;SDS011;63444;48.148;11.542;2022-11-20T10:05:10;2.17;;;1.80;;
45011;SDS011;63444;48.148;11.542;2022-11-20T10:07:44;1.93;;;1.70;;
45011;SDS011;63444;48.148;11.542;2022-11-20T10:10:36;1.70;;;1.60;;
45011;SDS011;63444;48.148;11.542;2022-11-20T10:21:53;4.27;;;1.80;;
45011;SDS011;63444;48.148;11.542;2022-11-20T10:24:44;3.17;;;1.40;;
45011;SDS011;63444;48.148;11.542;2022-11-20T10:30:18;1.40;;;1.30;;
45011;SDS011;63444;48.148;11.542;2022-11-20T10:32:47;2.80;;;1.70;;
45011;SDS011;63444;48.148;11.542;2022-11-20T10:35:20;2.00;;;1.57;;
45011;SDS011;63444;48.148;11.542;2022-11-20T10:37:55;3.97;;;1.70;;
45011;SDS011;63444;48.148;11.542;2022-11-20T10:40:46;1.93;;;1.40;;
45011;SDS011;63444;48.148;11.542;2022-11-20T10:43:26;1.70;;;1.60;;
45011;SDS011;63444;48.148;11.542;2022-11-20T10:46:05;1.50;;;1.30;;
45011;SDS011;63444;48.148;11.542;2022-11-20T10:48:35;1.73;;;1.50;;
45011;SDS011;63444;48.148;11.542;2022-11-20T10:51:21;1.60;;;1.50;;
45011;SDS011;63444;48.148;11.542;2022-11-20T10:56:47;1.70;;;1.60;;
45011;SDS011;63444;48.148;11.542;2022-11-20T10:59:32;1.70;;;1.60;;
45011;SDS011;63444;48.148;11.542;2022-11-20T11:04:47;3.63;;;1.90;;
45011;SDS011;63444;48.148;11.542;2022-11-20T11:07:27;1.70;;;1.60;;
45011;SDS011;63444;48.148;11.542;2022-11-20T11:09:58;3.83;;;1.67;;
45011;SDS011;63444;48.148;11.542;2022-11-20T11:12:25;1.40;;;1.30;;
45011;SDS011;63444;48.148;11.542;2022-11-20T11:14:53;2.20;;;1.40;;
45011;SDS011;63444;48.148;11.542;2022-11-20T11:22:24;2.13;;;1.60;;
45011;SDS011;63444;48.148;11.542;2022-11-20T11:24:53;2.00;;;1.33;;
45011;SDS011;63444;48.148;11.542;2022-11-20T11:27:20;2.53;;;1.30;;
45011;SDS011;63444;48.148;11.542;2022-11-20T11:29:45;2.33;;;1.47;;
45011;SDS011;63444;48.148;11.542;2022-11-20T11:34:39;2.40;;;1.43;;
45011;SDS011;63444;48.148;11.542;2022-11-20T11:37:05;1.63;;;1.50;;
45011;SDS011;63444;48.148;11.542;2022-11-20T11:39:40;1.43;;;1.33;;
45011;SDS011;63444;48.148;11.542;2022-11-20T11:42:07;1.90;;;1.70;;
45011;SDS011;63444;48.148;11.542;2022-11-20T11:44:43;3.17;;;1.53;;
45011;SDS011;63444;48.148;11.542;2022-11-20T11:47:30;1.30;;;1.20;;
45011;SDS011;63444;48.148;11.542;2022-11-20T11:55:07;1.83;;;1.40;;
45011;SDS011;63444;48.148;11.542;2022-11-20T11:57:41;1.40;;;1.30;;
45011;SDS011;63444;48.148;11.542;2022-11-20T12:00:14;1.33;;;1.17;;
45011;SDS011;63444;48.148;11.542;2022-11-20T12:05:17;1.57;;;1.40;;
45011;SDS011;63444;48.148;11.542;2022-11-20T12:11:16;1.90;;;1.33;;
45011;SDS011;63444;48.148;11.542;2022-11-20T12:16:42;1.50;;;1.40;;
45011;SDS011;63444;48.148;11.542;2022-11-20T12:19:11;2.73;;;1.40;;
45011;SDS011;63444;48.148;11.542;2022-11-20T12:27:35;1.33;;;1.20;;
45011;SDS011;63444;48.148;11.542;2022-11-20T12:30:20;2.50;;;1.50;;
45011;SDS011;63444;48.148;11.542;2022-11-20T12:36:00;1.53;;;1.40;;
45011;SDS011;63444;48.148;11.542;2022-11-20T12:47:40;1.40;;;1.30;;
45011;SDS011;63444;48.148;11.542;2022-11-20T12:53:21;3.27;;;1.60;;
45011;SDS011;63444;48.148;11.542;2022-11-20T12:56:19;1.47;;;1.33;;
45011;SDS011;63444;48.148;11.542;2022-11-20T13:07:11;1.87;;;1.40;;
45011;SDS011;63444;48.148;11.542;2022-11-20T13:09:41;1.60;;;1.50;;
45011;SDS011;63444;48.148;11.542;2022-11-20T13:18:08;1.90;;;1.57;;
45011;SDS011;63444;48.148;11.542;2022-11-20T13:20:35;2.93;;;1.53;;
45011;SDS011;63444;48.148;11.542;2022-11-20T13:23:06;2.10;;;1.50;;
45011;SDS011;63444;48.148;11.542;2022-11-20T13:25:32;1.40;;;1.30;;
45011;SDS011;63444;48.148;11.542;2022-11-20T13:30:48;1.67;;;1.57;;
45011;SDS011;63444;48.148;11.542;2022-11-20T13:36:00;1.50;;;1.40;;
45011;SDS011;63444;48.148;11.542;2022-11-20T13:38:27;1.67;;;1.57;;
45011;SDS011;63444;48.148;11.542;2022-11-20T13:43:37;2.27;;;1.70;;
45011;SDS011;63444;48.148;11.542;2022-11-20T13:46:07;1.77;;;1.60;;
45011;SDS011;63444;48.148;11.542;2022-11-20T13:48:44;2.03;;;1.93;;
45011;SDS011;63444;48.148;11.542;2022-11-20T13:51:15;1.80;;;1.70;;
45011;SDS011;63444;48.148;11.542;2022-11-20T14:05:30;2.20;;;1.87;;
45011;SDS011;63444;48.148;11.542;2022-11-20T14:07:59;2.17;;;1.87;;
45011;SDS011;63444;48.148;11.542;2022-11-20T14:10:30;2.20;;;1.90;;
45011;SDS011;63444;48.148;11.542;2022-11-20T14:12:55;2.07;;;1.80;;
45011;SDS011;63444;48.148;11.542;2022-11-20T14:15:25;1.90;;;1.80;;
45011;SDS011;63444;48.148;11.542;2022-11-20T14:18:10;2.33;;;1.80;;
45011;SDS011;63444;48.148;11.542;2022-11-20T14:20:39;1.87;;;1.70;;
45011;SDS011;63444;48.148;11.542;2022-11-20T14:23:07;1.90;;;1.80;;
45011;SDS011;63444;48.148;11.542;2022-11-20T14:25:35;1.70;;;1.60;;
45011;SDS011;63444;48.148;11.542;2022-11-20T14:28:01;2.83;;;1.60;;
45011;SDS011;63444;48.148;11.542;2022-11-20T14:30:39;1.63;;;1.53;;
45011;SDS011;63444;48.148;11.542;2022-11-20T14:33:09;1.60;;;1.50;;
45011;SDS011;63444;48.148;11.542;2022-11-20T14:35:40;2.13;;;1.53;;
45011;SDS011;63444;48.148;11.542;2022-11-20T14:38:16;3.03;;;1.50;;
45011;SDS011;63444;48.148;11.542;2022-11-20T14:40:45;2.33;;;1.67;;
45011;SDS011;63444;48.148;11.542;2022-11-20T14:43:24;2.40;;;1.70;;
45011;SDS011;63444;48.148;11.542;2022-11-20T14:45:58;2.10;;;1.67;;
45011;SDS011;63444;48.148;11.542;2022-11-20T14:48:28;2.37;;;1.50;;
45011;SDS011;63444;48.148;11.542;2022-11-20T14:50:57;2.13;;;1.50;;
45011;SDS011;63444;48.148;11.542;2022-11-20T14:53:24;2.43;;;1.60;;
45011;SDS011;63444;48.148;11.542;2022-11-20T14:55:57;1.50;;;1.40;;
45011;SDS011;63444;48.148;11.542;2022-11-20T14:58:25;1.53;;;1.40;;
45011;SDS011;63444;48.148;11.542;2022-11-20T15:00:53;1.77;;;1.50;;
45011;SDS011;63444;48.148;11.542;2022-11-20T15:03:30;1.30;;;1.20;;
45011;SDS011;63444;48.148;11.542;2022-11-20T15:06:00;1.40;;;1.27;;
45011;SDS011;63444;48.148;11.542;2022-11-20T15:08:26;1.33;;;1.23;;
45011;SDS011;63444;48.148;11.542;2022-11-20T15:10:51;2.20;;;1.03;;
45011;SDS011;63444;48.148;11.542;2022-11-20T15:13:26;1.40;;;1.30;;
45011;SDS011;63444;48.148;11.542;2022-11-20T15:16:00;1.23;;;1.00;;
45011;SDS011;63444;48.148;11.542;2022-11-20T15:18:28;1.50;;;1.40;;
45011;SDS011;63444;48.148;11.542;2022-11-20T15:20:56;2.53;;;1.43;;
45011;SDS011;63444;48.148;11.542;2022-11-20T15:23:23;1.40;;;1.30;;
45011;SDS011;63444;48.148;11.542;2022-11-20T15:25:51;1.00;;;1.00;;
45011;SDS011;63444;48.148;11.542;2022-11-20T15:28:18;4.30;;;1.40;;
45011;SDS011;63444;48.148;11.542;2022-11-20T15:30:54;1.80;;;1.40;;
45011;SDS011;63444;48.148;11.542;2022-11-20T15:33:20;1.60;;;1.50;;
45011;SDS011;63444;48.148;11.542;2022-11-20T15:35:46;3.10;;;1.40;;
45011;SDS011;63444;48.148;11.542;2022-11-20T15:38:11;1.90;;;1.30;;
45011;SDS011;63444;48.148;11.542;2022-11-20T15:40:37;1.50;;;1.40;;
45011;SDS011;63444;48.148;11.542;2022-11-20T15:43:03;1.90;;;1.47;;
45011;SDS011;63444;48.148;11.542;2022-11-20T15:48:19;1.97;;;1.60;;
45011;SDS011;63444;48.148;11.542;2022-11-20T15:53:30;1.93;;;1.40;;
45011;SDS011;63444;48.148;11.542;2022-11-20T15:55:56;2.73;;;1.63;;
45011;SDS011;63444;48.148;11.542;2022-11-20T15:58:21;4.77;;;1.70;;
45011;SDS011;63444;48.148;11.542;2022-11-20T16:00:49;2.30;;;1.73;;
45011;SDS011;63444;48.148;11.542;2022-11-20T16:03:15;3.30;;;2.00;;
45011;SDS011;63444;48.148;11.542;2022-11-20T16:05:42;1.87;;;1.73;;
45011;SDS011;63444;48.148;11.542;2022-11-20T16:08:09;2.63;;;1.87;;
45011;SDS011;63444;48.148;11.542;2022-11-20T16:10:36;2.03;;;1.80;;
45011;SDS011;63444;48.148;11.542;2022-11-20T16:13:02;2.33;;;1.83;;
45011;SDS011;63444;48.148;11.542;2022-11-20T16:15:54;2.20;;;2.00;;
45011;SDS011;63444;48.148;11.542;2022-11-20T16:18:22;2.67;;;2.00;;
45011;SDS011;63444;48.148;11.542;2022-11-20T16:20:50;2.20;;;1.80;;
45011;SDS011;63444;48.148;11.542;2022-11-20T16:23:18;2.80;;;1.77;;
45011;SDS011;63444;48.148;11.542;2022-11-20T16:25:45;4.20;;;2.00;;
45011;SDS011;63444;48.148;11.542;2022-11-20T16:28:11;2.40;;;1.90;;
45011;SDS011;63444;48.148;11.542;2022-11-20T16:30:37;2.60;;;1.73;;
45011;SDS011;63444;48.148;11.542;2022-11-20T16:33:03;4.17;;;2.10;;
45011;SDS011;63444;48.148;11.542;2022-11-20T16:35:29;3.30;;;2.13;;
45011;SDS011;63444;48.148;11.542;2022-11-20T16:37:56;1.97;;;1.83;;
45011;SDS011;63444;48.148;11.542;2022-11-20T16:40:22;3.03;;;2.20;;